sensor_id;sensor_type;location;lat;lon;timestamp;pressure;altitude;pressure_sealevel;temperature;humidity
70133;BME280;57495;49.922;7.966;2023-02-01T00:00:37;100522.06;;;4.59;100.00
70133;BME280;57495;49.922;7.966;2023-02-01T00:02:38;100516.97;;;4.56;100.00
70133;BME280;57495;49.922;7.966;2023-02-01T00:04:40;100516.97;;;4.56;100.00
70133;BME280;57495;49.922;7.966;2023-02-01T00:06:42;100523.16;;;4.40;100.00
70133;BME280;57495;49.922;7.966;2023-02-01T00:08:43;100525.47;;;4.47;100.00
70133;BME280;57495;49.922;7.966;2023-02-01T00:10:45;100512.97;;;4.49;100.00
70133;BME280;57495;49.922;7.966;2023-02-01T00:12:47;100513.66;;;4.52;100.00
70133;BME280;57495;49.922;7.966;2023-02-01T00:14:49;100505.88;;;4.49;100.00
70133;BME280;57495;49.922;7.966;2023-02-01T00:16:50;100506.63;;;4.51;100.00
70133;BME280;57495;49.922;7.966;2023-02-01T00:18:57;100497.47;;;4.57;100.00
70133;BME280;57495;49.922;7.966;2023-02-01T00:20:58;100501.16;;;4.54;100.00
70133;BME280;57495;49.922;7.966;2023-02-01T00:23:00;100502.00;;;4.55;100.00
70133;BME280;57495;49.922;7.966;2023-02-01T00:25:01;100499.84;;;4.61;100.00
70133;BME280;57495;49.922;7.966;2023-02-01T00:27:03;100499.28;;;4.56;100.00
70133;BME280;57495;49.922;7.966;2023-02-01T00:29:09;100501.66;;;4.61;100.00
70133;BME280;57495;49.922;7.966;2023-02-01T00:31:11;100495.91;;;4.69;100.00
70133;BME280;57495;49.922;7.966;2023-02-01T00:33:13;100498.06;;;4.76;100.00
70133;BME280;57495;49.922;7.966;2023-02-01T00:35:14;100501.47;;;4.78;100.00
70133;BME280;57495;49.922;7.966;2023-02-01T00:37:16;100500.72;;;4.76;100.00
70133;BME280;57495;49.922;7.966;2023-02-01T00:39:17;100506.94;;;4.75;100.00
70133;BME280;57495;49.922;7.966;2023-02-01T00:41:20;100498.81;;;4.78;100.00
70133;BME280;57495;49.922;7.966;2023-02-01T00:43:22;100484.91;;;4.75;100.00
70133;BME280;57495;49.922;7.966;2023-02-01T00:45:24;100490.38;;;4.72;100.00
70133;BME280;57495;49.922;7.966;2023-02-01T00:47:26;100493.03;;;4.72;100.00
70133;BME280;57495;49.922;7.966;2023-02-01T00:49:27;100493.16;;;4.70;100.00
70133;BME280;57495;49.922;7.966;2023-02-01T00:51:29;100493.91;;;4.72;100.00
70133;BME280;57495;49.922;7.966;2023-02-01T00:53:31;100493.16;;;4.70;100.00
70133;BME280;57495;49.922;7.966;2023-02-01T00:55:33;100486.16;;;4.69;100.00
70133;BME280;57495;49.922;7.966;2023-02-01T00:57:35;100491.13;;;4.74;100.00
70133;BME280;57495;49.922;7.966;2023-02-01T00:59:36;100492.19;;;4.71;100.00
70133;BME280;57495;49.922;7.966;2023-02-01T01:01:39;100492.38;;;4.68;100.00
70133;BME280;57495;49.922;7.966;2023-02-01T01:03:42;100497.59;;;4.70;100.00
70133;BME280;57495;49.922;7.966;2023-02-01T01:05:44;100484.34;;;4.70;100.00
70133;BME280;57495;49.922;7.966;2023-02-01T01:07:45;100486.16;;;4.69;100.00
70133;BME280;57495;49.922;7.966;2023-02-01T01:09:47;100484.81;;;4.62;100.00
70133;BME280;57495;49.922;7.966;2023-02-01T01:11:48;100476.78;;;4.63;100.00
70133;BME280;57495;49.922;7.966;2023-02-01T01:13:52;100486.31;;;4.66;100.00
70133;BME280;57495;49.922;7.966;2023-02-01T01:15:53;100487.28;;;4.65;100.00
70133;BME280;57495;49.922;7.966;2023-02-01T01:17:56;100491.44;;;4.69;100.00
70133;BME280;57495;49.922;7.966;2023-02-01T01:19:58;100488.69;;;4.71;100.00
70133;BME280;57495;49.922;7.966;2023-02-01T01:21:59;100485.22;;;4.70;100.00
70133;BME280;57495;49.922;7.966;2023-02-01T01:24:00;100489.53;;;4.71;100.00
70133;BME280;57495;49.922;7.966;2023-02-01T01:26:05;100481.97;;;4.65;100.00
70133;BME280;57495;49.922;7.966;2023-02-01T01:28:07;100482.91;;;4.64;100.00
70133;BME280;57495;49.922;7.966;2023-02-01T01:30:10;100479.25;;;4.67;100.00
70133;BME280;57495;49.922;7.966;2023-02-01T01:32:11;100480.34;;;4.62;100.00
70133;BME280;57495;49.922;7.966;2023-02-01T01:34:14;100478.75;;;4.60;100.00
70133;BME280;57495;49.922;7.966;2023-02-01T01:36:15;100471.66;;;4.60;100.00
70133;BME280;57495;49.922;7.966;2023-02-01T01:38:17;100467.22;;;4.61;100.00
70133;BME280;57495;49.922;7.966;2023-02-01T01:40:19;100470.81;;;4.60;100.00
70133;BME280;57495;49.922;7.966;2023-02-01T01:42:20;100474.22;;;4.62;100.00
70133;BME280;57495;49.922;7.966;2023-02-01T01:44:57;100468.91;;;4.62;100.00
70133;BME280;57495;49.922;7.966;2023-02-01T01:46:59;100465.34;;;4.63;100.00
70133;BME280;57495;49.922;7.966;2023-02-01T01:49:05;100466.00;;;4.67;100.00
70133;BME280;57495;49.922;7.966;2023-02-01T01:51:10;100469.59;;;4.65;100.00
70133;BME280;57495;49.922;7.966;2023-02-01T01:53:16;100465.13;;;4.66;100.00
70133;BME280;57495;49.922;7.966;2023-02-01T01:55:20;100470.44;;;4.66;100.00
70133;BME280;57495;49.922;7.966;2023-02-01T01:57:26;100465.13;;;4.66;100.00
70133;BME280;57495;49.922;7.966;2023-02-01T01:59:31;100458.72;;;4.70;100.00
70133;BME280;57495;49.922;7.966;2023-02-01T02:01:33;100454.34;;;4.69;100.00
70133;BME280;57495;49.922;7.966;2023-02-01T02:03:37;100458.16;;;4.65;100.00
70133;BME280;57495;49.922;7.966;2023-02-01T02:05:39;100457.00;;;4.69;100.00
70133;BME280;57495;49.922;7.966;2023-02-01T02:07:45;100452.47;;;4.71;100.00
70133;BME280;57495;49.922;7.966;2023-02-01T02:09:47;100444.59;;;4.70;100.00
70133;BME280;57495;49.922;7.966;2023-02-01T02:11:49;100439.41;;;4.68;100.00
70133;BME280;57495;49.922;7.966;2023-02-01T02:13:52;100434.31;;;4.65;100.00
70133;BME280;57495;49.922;7.966;2023-02-01T02:16:04;100424.66;;;4.64;100.00
70133;BME280;57495;49.922;7.966;2023-02-01T02:18:10;100433.56;;;4.63;100.00
70133;BME280;57495;49.922;7.966;2023-02-01T02:20:39;100434.22;;;4.67;100.00
70133;BME280;57495;49.922;7.966;2023-02-01T02:23:00;100430.78;;;4.64;100.00
70133;BME280;57495;49.922;7.966;2023-02-01T02:25:48;100422.97;;;4.63;100.00
70133;BME280;57495;49.922;7.966;2023-02-01T02:27:59;100424.66;;;4.64;100.00
70133;BME280;57495;49.922;7.966;2023-02-01T02:30:37;100423.97;;;4.60;100.00
70133;BME280;57495;49.922;7.966;2023-02-01T02:33:01;100426.53;;;4.62;100.00
70133;BME280;57495;49.922;7.966;2023-02-01T02:35:12;100434.56;;;4.60;100.00
70133;BME280;57495;49.922;7.966;2023-02-01T02:37:27;100434.47;;;4.62;100.00
70133;BME280;57495;49.922;7.966;2023-02-01T02:39:40;100438.84;;;4.63;100.00
70133;BME280;57495;49.922;7.966;2023-02-01T02:41:51;100437.88;;;4.64;100.00
70133;BME280;57495;49.922;7.966;2023-02-01T02:44:20;100449.44;;;4.63;100.00
70133;BME280;57495;49.922;7.966;2023-02-01T02:46:46;100451.13;;;4.64;100.00
70133;BME280;57495;49.922;7.966;2023-02-01T02:49:11;100450.28;;;4.63;100.00
70133;BME280;57495;49.922;7.966;2023-02-01T02:51:20;100450.47;;;4.60;100.00
70133;BME280;57495;49.922;7.966;2023-02-01T02:53:48;100450.56;;;4.59;100.00
70133;BME280;57495;49.922;7.966;2023-02-01T02:56:11;100447.06;;;4.58;100.00
70133;BME280;57495;49.922;7.966;2023-02-01T02:58:31;100439.03;;;4.60;100.00
70133;BME280;57495;49.922;7.966;2023-02-01T03:00:51;100440.91;;;4.58;100.00
70133;BME280;57495;49.922;7.966;2023-02-01T03:03:11;100441.75;;;4.58;100.00
70133;BME280;57495;49.922;7.966;2023-02-01T03:05:34;100437.22;;;4.60;100.00
70133;BME280;57495;49.922;7.966;2023-02-01T03:07:53;100439.78;;;4.62;100.00
70133;BME280;57495;49.922;7.966;2023-02-01T03:09:55;100439.13;;;4.58;100.00
70133;BME280;57495;49.922;7.966;2023-02-01T03:12:01;100433.91;;;4.57;100.00
70133;BME280;57495;49.922;7.966;2023-02-01T03:14:24;100435.31;;;4.62;100.00
70133;BME280;57495;49.922;7.966;2023-02-01T03:16:32;100428.03;;;4.66;100.00
70133;BME280;57495;49.922;7.966;2023-02-01T03:18:41;100430.59;;;4.68;100.00
70133;BME280;57495;49.922;7.966;2023-02-01T03:20:48;100438.38;;;4.71;100.00
70133;BME280;57495;49.922;7.966;2023-02-01T03:22:52;100431.84;;;4.62;100.00
70133;BME280;57495;49.922;7.966;2023-02-01T03:24:56;100437.22;;;4.60;100.00
70133;BME280;57495;49.922;7.966;2023-02-01T03:27:04;100436.19;;;4.63;100.00
70133;BME280;57495;49.922;7.966;2023-02-01T03:29:11;100435.25;;;4.64;100.00
70133;BME280;57495;49.922;7.966;2023-02-01T03:31:15;100422.56;;;4.69;100.00
70133;BME280;57495;49.922;7.966;2023-02-01T03:33:18;100414.63;;;4.69;100.00
70133;BME280;57495;49.922;7.966;2023-02-01T03:35:27;100410.25;;;4.68;100.00
70133;BME280;57495;49.922;7.966;2023-02-01T03:37:29;100406.00;;;4.65;100.00
70133;BME280;57495;49.922;7.966;2023-02-01T03:39:35;100407.72;;;4.67;100.00
70133;BME280;57495;49.922;7.966;2023-02-01T03:41:40;100405.16;;;4.65;100.00
70133;BME280;57495;49.922;7.966;2023-02-01T03:43:50;100402.44;;;4.67;100.00
70133;BME280;57495;49.922;7.966;2023-02-01T03:45:58;100393.63;;;4.66;100.00
70133;BME280;57495;49.922;7.966;2023-02-01T03:48:02;100395.31;;;4.67;100.00
70133;BME280;57495;49.922;7.966;2023-02-01T03:50:07;100401.56;;;4.66;100.00
70133;BME280;57495;49.922;7.966;2023-02-01T03:52:12;100397.22;;;4.65;100.00
70133;BME280;57495;49.922;7.966;2023-02-01T03:54:14;100400.72;;;4.65;100.00
70133;BME280;57495;49.922;7.966;2023-02-01T03:56:21;100401.56;;;4.66;100.00
70133;BME280;57495;49.922;7.966;2023-02-01T03:58:24;100404.03;;;4.69;100.00
70133;BME280;57495;49.922;7.966;2023-02-01T04:00:26;100399.66;;;4.68;100.00
70133;BME280;57495;49.922;7.966;2023-02-01T04:02:27;100408.84;;;4.62;100.00
70133;BME280;57495;49.922;7.966;2023-02-01T04:04:29;100408.84;;;4.62;100.00
70133;BME280;57495;49.922;7.966;2023-02-01T04:06:30;100421.06;;;4.65;100.00
70133;BME280;57495;49.922;7.966;2023-02-01T04:08:32;100425.78;;;4.60;100.00
70133;BME280;57495;49.922;7.966;2023-02-01T04:10:33;100428.44;;;4.60;100.00
70133;BME280;57495;49.922;7.966;2023-02-01T04:12:36;100430.34;;;4.58;100.00
70133;BME280;57495;49.922;7.966;2023-02-01T04:14:37;100429.38;;;4.59;100.00
70133;BME280;57495;49.922;7.966;2023-02-01T04:16:39;100425.69;;;4.61;100.00
70133;BME280;57495;49.922;7.966;2023-02-01T04:18:40;100428.44;;;4.60;100.00
70133;BME280;57495;49.922;7.966;2023-02-01T04:20:42;100424.28;;;4.56;100.00
70133;BME280;57495;49.922;7.966;2023-02-01T04:22:44;100428.81;;;4.54;100.00
70133;BME280;57495;49.922;7.966;2023-02-01T04:24:45;100429.09;;;4.49;100.00
70133;BME280;57495;49.922;7.966;2023-02-01T04:26:47;100430.81;;;4.50;100.00
70133;BME280;57495;49.922;7.966;2023-02-01T04:28:49;100425.78;;;4.45;100.00
70133;BME280;57495;49.922;7.966;2023-02-01T04:30:52;100431.28;;;4.42;100.00
70133;BME280;57495;49.922;7.966;2023-02-01T04:32:54;100414.50;;;4.42;100.00
70133;BME280;57495;49.922;7.966;2023-02-01T04:34:55;100420.69;;;4.42;100.00
70133;BME280;57495;49.922;7.966;2023-02-01T04:36:57;100411.03;;;4.41;100.00
70133;BME280;57495;49.922;7.966;2023-02-01T04:38:58;100409.22;;;4.42;100.00
70133;BME280;57495;49.922;7.966;2023-02-01T04:41:00;100411.94;;;4.40;100.00
70133;BME280;57495;49.922;7.966;2023-02-01T04:43:01;100418.47;;;4.35;100.00
70133;BME280;57495;49.922;7.966;2023-02-01T04:45:06;100422.19;;;4.32;100.00
70133;BME280;57495;49.922;7.966;2023-02-01T04:47:08;100424.91;;;4.31;100.00
70133;BME280;57495;49.922;7.966;2023-02-01T04:49:11;100425.00;;;4.29;100.00
70133;BME280;57495;49.922;7.966;2023-02-01T04:51:13;100425.00;;;4.29;100.00
70133;BME280;57495;49.922;7.966;2023-02-01T04:53:15;100425.56;;;4.34;100.00
70133;BME280;57495;49.922;7.966;2023-02-01T04:55:16;100432.13;;;4.43;100.00
70133;BME280;57495;49.922;7.966;2023-02-01T04:57:18;100438.25;;;4.43;100.00
70133;BME280;57495;49.922;7.966;2023-02-01T04:59:19;100429.38;;;4.44;100.00
70133;BME280;57495;49.922;7.966;2023-02-01T05:01:22;100423.69;;;4.51;100.00
70133;BME280;57495;49.922;7.966;2023-02-01T05:03:24;100428.63;;;4.57;100.00
70133;BME280;57495;49.922;7.966;2023-02-01T05:05:26;100418.22;;;4.54;100.00
70133;BME280;57495;49.922;7.966;2023-02-01T05:07:28;100418.03;;;4.57;100.00
70133;BME280;57495;49.922;7.966;2023-02-01T05:09:29;100417.84;;;4.60;100.00
70133;BME280;57495;49.922;7.966;2023-02-01T05:11:31;100413.88;;;4.53;100.00
70133;BME280;57495;49.922;7.966;2023-02-01T05:13:50;100412.34;;;4.49;100.00
70133;BME280;57495;49.922;7.966;2023-02-01T05:15:51;100408.19;;;4.44;100.00
70133;BME280;57495;49.922;7.966;2023-02-01T05:17:54;100405.63;;;4.43;100.00
70133;BME280;57495;49.922;7.966;2023-02-01T05:19:55;100400.72;;;4.37;100.00
70133;BME280;57495;49.922;7.966;2023-02-01T05:21:57;100396.06;;;4.40;100.00
70133;BME280;57495;49.922;7.966;2023-02-01T05:23:58;100408.75;;;4.50;100.00
70133;BME280;57495;49.922;7.966;2023-02-01T05:26:13;100398.94;;;4.52;100.00
70133;BME280;57495;49.922;7.966;2023-02-01T05:28:15;100380.41;;;4.52;100.00
70133;BME280;57495;49.922;7.966;2023-02-01T05:30:16;100378.69;;;4.51;100.00
70133;BME280;57495;49.922;7.966;2023-02-01T05:32:18;100370.66;;;4.52;100.00
70133;BME280;57495;49.922;7.966;2023-02-01T05:34:20;100389.66;;;4.44;100.00
70133;BME280;57495;49.922;7.966;2023-02-01T05:36:22;100391.66;;;4.41;100.00
70133;BME280;57495;49.922;7.966;2023-02-01T05:38:23;100391.81;;;4.38;100.00
70133;BME280;57495;49.922;7.966;2023-02-01T05:40:25;100403.56;;;4.34;100.00
70133;BME280;57495;49.922;7.966;2023-02-01T05:42:26;100408.38;;;4.41;100.00
70133;BME280;57495;49.922;7.966;2023-02-01T05:44:27;100411.94;;;4.40;100.00
70133;BME280;57495;49.922;7.966;2023-02-01T05:46:29;100406.66;;;4.40;100.00
70133;BME280;57495;49.922;7.966;2023-02-01T05:48:30;100427.50;;;4.47;100.00
70133;BME280;57495;49.922;7.966;2023-02-01T05:50:33;100427.66;;;4.43;100.00
70133;BME280;57495;49.922;7.966;2023-02-01T05:52:34;100425.97;;;4.42;100.00
70133;BME280;57495;49.922;7.966;2023-02-01T05:54:36;100426.91;;;4.41;100.00
70133;BME280;57495;49.922;7.966;2023-02-01T05:56:37;100435.78;;;4.40;100.00
70133;BME280;57495;49.922;7.966;2023-02-01T05:58:40;100428.81;;;4.54;100.00
70133;BME280;57495;49.922;7.966;2023-02-01T06:00:42;100422.19;;;4.47;100.00
70133;BME280;57495;49.922;7.966;2023-02-01T06:02:43;100420.94;;;4.38;100.00
70133;BME280;57495;49.922;7.966;2023-02-01T06:04:44;100403.44;;;4.50;100.00
70133;BME280;57495;49.922;7.966;2023-02-01T06:06:47;100418.78;;;4.44;100.00
70133;BME280;57495;49.922;7.966;2023-02-01T06:08:50;100406.97;;;4.50;100.00
70133;BME280;57495;49.922;7.966;2023-02-01T06:10:57;100413.09;;;4.51;100.00
70133;BME280;57495;49.922;7.966;2023-02-01T06:12:59;100404.81;;;4.42;100.00
70133;BME280;57495;49.922;7.966;2023-02-01T06:15:00;100403.56;;;4.48;100.00
70133;BME280;57495;49.922;7.966;2023-02-01T06:17:01;100404.31;;;4.36;100.00
70133;BME280;57495;49.922;7.966;2023-02-01T06:19:03;100401.94;;;4.17;100.00
70133;BME280;57495;49.922;7.966;2023-02-01T06:21:04;100414.28;;;4.16;100.00
70133;BME280;57495;49.922;7.966;2023-02-01T06:23:07;100411.94;;;4.12;100.00
70133;BME280;57495;49.922;7.966;2023-02-01T06:25:10;100399.41;;;4.30;100.00
70133;BME280;57495;49.922;7.966;2023-02-01T06:27:11;100403.72;;;4.16;100.00
70133;BME280;57495;49.922;7.966;2023-02-01T06:29:13;100405.72;;;4.27;100.00
70133;BME280;57495;49.922;7.966;2023-02-01T06:31:15;100416.88;;;4.32;100.00
70133;BME280;57495;49.922;7.966;2023-02-01T06:33:16;100413.75;;;4.25;100.00
70133;BME280;57495;49.922;7.966;2023-02-01T06:35:18;100410.03;;;4.14;100.00
70133;BME280;57495;49.922;7.966;2023-02-01T06:37:19;100417.59;;;4.05;100.00
70133;BME280;57495;49.922;7.966;2023-02-01T06:39:22;100409.66;;;4.05;100.00
70133;BME280;57495;49.922;7.966;2023-02-01T06:41:24;100410.59;;;4.04;100.00
70133;BME280;57495;49.922;7.966;2023-02-01T06:43:27;100403.78;;;4.00;100.00
70133;BME280;57495;49.922;7.966;2023-02-01T06:45:28;100408.88;;;4.03;100.00
70133;BME280;57495;49.922;7.966;2023-02-01T06:47:29;100411.81;;;3.99;100.00
70133;BME280;57495;49.922;7.966;2023-02-01T06:49:31;100413.88;;;3.94;100.00
70133;BME280;57495;49.922;7.966;2023-02-01T06:51:32;100415.03;;;4.04;100.00
70133;BME280;57495;49.922;7.966;2023-02-01T06:53:34;100407.69;;;4.09;100.00
70133;BME280;57495;49.922;7.966;2023-02-01T06:55:36;100415.34;;;4.14;100.00
70133;BME280;57495;49.922;7.966;2023-02-01T06:57:38;100404.75;;;4.14;100.00
70133;BME280;57495;49.922;7.966;2023-02-01T06:59:39;100405.81;;;4.11;100.00
70133;BME280;57495;49.922;7.966;2023-02-01T07:01:41;100412.97;;;4.09;100.00
70133;BME280;57495;49.922;7.966;2023-02-01T07:03:43;100408.53;;;4.10;100.00
70133;BME280;57495;49.922;7.966;2023-02-01T07:05:47;100409.22;;;4.13;100.00
70133;BME280;57495;49.922;7.966;2023-02-01T07:07:49;100404.94;;;4.11;100.00
70133;BME280;57495;49.922;7.966;2023-02-01T07:09:50;100400.00;;;4.04;100.00
70133;BME280;57495;49.922;7.966;2023-02-01T07:11:53;100406.81;;;4.09;100.00
70133;BME280;57495;49.922;7.966;2023-02-01T07:13:54;100419.69;;;4.15;100.00
70133;BME280;57495;49.922;7.966;2023-02-01T07:15:58;100419.88;;;4.12;100.00
70133;BME280;57495;49.922;7.966;2023-02-01T07:17:59;100428.53;;;3.99;100.00
70133;BME280;57495;49.922;7.966;2023-02-01T07:20:01;100421.34;;;3.87;100.00
70133;BME280;57495;49.922;7.966;2023-02-01T07:22:02;100420.38;;;3.88;100.00
70133;BME280;57495;49.922;7.966;2023-02-01T07:24:04;100423.69;;;3.92;100.00
70133;BME280;57495;49.922;7.966;2023-02-01T07:26:07;100418.84;;;3.84;100.00
70133;BME280;57495;49.922;7.966;2023-02-01T07:28:10;100423.03;;;3.88;100.00
70133;BME280;57495;49.922;7.966;2023-02-01T07:30:12;100437.09;;;3.88;100.00
70133;BME280;57495;49.922;7.966;2023-02-01T07:32:13;100439.50;;;3.93;100.00
70133;BME280;57495;49.922;7.966;2023-02-01T07:34:18;100430.66;;;3.78;100.00
70133;BME280;57495;49.922;7.966;2023-02-01T07:36:19;100434.72;;;3.84;100.00
70133;BME280;57495;49.922;7.966;2023-02-01T07:38:20;100435.34;;;4.03;100.00
70133;BME280;57495;49.922;7.966;2023-02-01T07:40:24;100442.53;;;4.01;100.00
70133;BME280;57495;49.922;7.966;2023-02-01T07:42:28;100446.28;;;3.97;100.00
70133;BME280;57495;49.922;7.966;2023-02-01T07:44:31;100456.41;;;3.91;100.00
70133;BME280;57495;49.922;7.966;2023-02-01T07:46:32;100449.13;;;3.94;100.00
70133;BME280;57495;49.922;7.966;2023-02-01T07:48:34;100452.94;;;4.04;100.00
70133;BME280;57495;49.922;7.966;2023-02-01T07:50:35;100454.66;;;4.05;100.00
70133;BME280;57495;49.922;7.966;2023-02-01T07:52:36;100462.44;;;4.23;100.00
70133;BME280;57495;49.922;7.966;2023-02-01T07:54:38;100461.09;;;4.16;100.00
70133;BME280;57495;49.922;7.966;2023-02-01T07:56:39;100463.47;;;4.20;100.00
70133;BME280;57495;49.922;7.966;2023-02-01T07:58:41;100463.72;;;4.16;100.00
70133;BME280;57495;49.922;7.966;2023-02-01T08:00:44;100466.00;;;4.22;100.00
70133;BME280;57495;49.922;7.966;2023-02-01T08:03:03;100466.78;;;4.24;100.00
70133;BME280;57495;49.922;7.966;2023-02-01T08:05:06;100465.47;;;4.31;100.00
70133;BME280;57495;49.922;7.966;2023-02-01T08:07:07;100468.34;;;4.42;100.00
70133;BME280;57495;49.922;7.966;2023-02-01T08:09:09;100458.88;;;4.53;100.00
70133;BME280;57495;49.922;7.966;2023-02-01T08:11:11;100454.75;;;4.63;100.00
70133;BME280;57495;49.922;7.966;2023-02-01T08:13:12;100462.13;;;4.72;100.00
70133;BME280;57495;49.922;7.966;2023-02-01T08:15:14;100456.78;;;4.87;100.00
70133;BME280;57495;49.922;7.966;2023-02-01T08:17:17;100467.69;;;4.96;98.45
70133;BME280;57495;49.922;7.966;2023-02-01T08:19:19;100475.75;;;4.95;98.42
70133;BME280;57495;49.922;7.966;2023-02-01T08:21:23;100477.25;;;4.99;97.61
70133;BME280;57495;49.922;7.966;2023-02-01T08:23:24;100477.06;;;5.02;97.45
70133;BME280;57495;49.922;7.966;2023-02-01T08:25:26;100483.69;;;4.95;97.68
70133;BME280;57495;49.922;7.966;2023-02-01T08:27:28;100477.72;;;4.91;97.90
70133;BME280;57495;49.922;7.966;2023-02-01T08:29:29;100485.50;;;4.94;97.62
70133;BME280;57495;49.922;7.966;2023-02-01T08:31:30;100490.81;;;4.94;95.36
70133;BME280;57495;49.922;7.966;2023-02-01T08:33:33;100496.28;;;4.91;96.91
70133;BME280;57495;49.922;7.966;2023-02-01T08:35:36;100493.44;;;4.94;96.97
70133;BME280;57495;49.922;7.966;2023-02-01T08:37:37;100503.66;;;4.86;96.96
70133;BME280;57495;49.922;7.966;2023-02-01T08:39:39;100496.19;;;4.93;97.44
70133;BME280;57495;49.922;7.966;2023-02-01T08:41:43;100502.31;;;4.93;94.92
70133;BME280;57495;49.922;7.966;2023-02-01T08:44:06;100501.41;;;4.94;95.69
70133;BME280;57495;49.922;7.966;2023-02-01T08:46:08;100495.03;;;4.97;94.77
70133;BME280;57495;49.922;7.966;2023-02-01T08:48:10;100496.75;;;4.98;95.01
70133;BME280;57495;49.922;7.966;2023-02-01T08:50:15;100500.53;;;4.94;94.80
70133;BME280;57495;49.922;7.966;2023-02-01T08:52:17;100495.22;;;4.94;93.99
70133;BME280;57495;49.922;7.966;2023-02-01T08:54:19;100491.47;;;4.98;93.97
70133;BME280;57495;49.922;7.966;2023-02-01T08:56:21;100499.13;;;5.02;93.55
70133;BME280;57495;49.922;7.966;2023-02-01T08:58:22;100506.31;;;5.00;93.39
70133;BME280;57495;49.922;7.966;2023-02-01T09:00:24;100500.84;;;5.03;94.17
70133;BME280;57495;49.922;7.966;2023-02-01T09:02:25;100503.75;;;5.13;89.64
70133;BME280;57495;49.922;7.966;2023-02-01T09:04:27;100509.63;;;5.18;90.15
70133;BME280;57495;49.922;7.966;2023-02-01T09:06:30;100516.16;;;5.13;92.01
70133;BME280;57495;49.922;7.966;2023-02-01T09:08:32;100509.81;;;5.15;91.20
70133;BME280;57495;49.922;7.966;2023-02-01T09:10:34;100511.41;;;5.18;91.75
70133;BME280;57495;49.922;7.966;2023-02-01T09:12:35;100507.50;;;5.23;89.40
70133;BME280;57495;49.922;7.966;2023-02-01T09:14:37;100508.16;;;5.27;89.83
70133;BME280;57495;49.922;7.966;2023-02-01T09:16:39;100513.19;;;5.32;87.96
70133;BME280;57495;49.922;7.966;2023-02-01T09:18:40;100532.41;;;5.35;87.31
70133;BME280;57495;49.922;7.966;2023-02-01T09:20:42;100525.88;;;5.41;89.04
70133;BME280;57495;49.922;7.966;2023-02-01T09:22:45;100524.38;;;5.37;88.81
70133;BME280;57495;49.922;7.966;2023-02-01T09:24:46;100531.75;;;5.32;89.25
70133;BME280;57495;49.922;7.966;2023-02-01T09:26:48;100540.28;;;5.37;87.61
70133;BME280;57495;49.922;7.966;2023-02-01T09:28:49;100548.78;;;5.42;88.61
70133;BME280;57495;49.922;7.966;2023-02-01T09:30:55;100556.56;;;5.45;86.57
70133;BME280;57495;49.922;7.966;2023-02-01T09:32:56;100566.97;;;5.48;87.01
70133;BME280;57495;49.922;7.966;2023-02-01T09:34:58;100557.31;;;5.47;87.35
70133;BME280;57495;49.922;7.966;2023-02-01T09:36:59;100569.22;;;5.54;87.64
70133;BME280;57495;49.922;7.966;2023-02-01T09:39:02;100566.59;;;5.54;88.57
70133;BME280;57495;49.922;7.966;2023-02-01T09:41:10;100570.94;;;5.55;89.78
70133;BME280;57495;49.922;7.966;2023-02-01T09:43:32;100573.97;;;5.49;88.25
70133;BME280;57495;49.922;7.966;2023-02-01T09:45:44;100572.44;;;5.59;88.77
70133;BME280;57495;49.922;7.966;2023-02-01T09:47:51;100576.25;;;5.55;86.90
70133;BME280;57495;49.922;7.966;2023-02-01T09:49:59;100581.16;;;5.61;86.54
70133;BME280;57495;49.922;7.966;2023-02-01T09:52:04;100575.84;;;5.61;88.39
70133;BME280;57495;49.922;7.966;2023-02-01T09:54:14;100570.38;;;5.65;87.80
70133;BME280;57495;49.922;7.966;2023-02-01T09:56:21;100570.16;;;5.68;88.12
70133;BME280;57495;49.922;7.966;2023-02-01T09:58:27;100581.91;;;5.64;88.86
70133;BME280;57495;49.922;7.966;2023-02-01T10:00:35;100575.09;;;5.59;88.44
70133;BME280;57495;49.922;7.966;2023-02-01T10:02:39;100575.09;;;5.59;85.52
70133;BME280;57495;49.922;7.966;2023-02-01T10:04:41;100573.28;;;5.60;86.99
70133;BME280;57495;49.922;7.966;2023-02-01T10:06:57;100571.50;;;5.60;88.01
70133;BME280;57495;49.922;7.966;2023-02-01T10:09:12;100561.63;;;5.62;86.04
70133;BME280;57495;49.922;7.966;2023-02-01T10:11:24;100556.13;;;5.66;86.21
70133;BME280;57495;49.922;7.966;2023-02-01T10:13:42;100559.53;;;5.68;85.91
70133;BME280;57495;49.922;7.966;2023-02-01T10:15:53;100557.44;;;5.73;87.22
70133;BME280;57495;49.922;7.966;2023-02-01T10:18:12;100562.66;;;5.74;86.03
70133;BME280;57495;49.922;7.966;2023-02-01T10:20:21;100551.75;;;5.79;87.98
70133;BME280;57495;49.922;7.966;2023-02-01T10:22:35;100558.84;;;5.78;86.50
70133;BME280;57495;49.922;7.966;2023-02-01T10:24:44;100558.75;;;5.80;85.99
70133;BME280;57495;49.922;7.966;2023-02-01T10:26:53;100569.19;;;5.83;86.18
70133;BME280;57495;49.922;7.966;2023-02-01T10:28:59;100570.22;;;5.80;84.85
70133;BME280;57495;49.922;7.966;2023-02-01T10:31:01;100558.94;;;5.77;86.54
70133;BME280;57495;49.922;7.966;2023-02-01T10:33:14;100553.66;;;5.77;85.20
70133;BME280;57495;49.922;7.966;2023-02-01T10:35:18;100554.41;;;5.79;86.31
70133;BME280;57495;49.922;7.966;2023-02-01T10:37:27;100548.56;;;5.74;88.02
70133;BME280;57495;49.922;7.966;2023-02-01T10:39:29;100539.81;;;5.72;86.77
70133;BME280;57495;49.922;7.966;2023-02-01T10:41:34;100536.13;;;5.74;87.82
70133;BME280;57495;49.922;7.966;2023-02-01T10:43:36;100540.88;;;5.69;87.83
70133;BME280;57495;49.922;7.966;2023-02-01T10:45:40;100532.16;;;5.67;86.50
70133;BME280;57495;49.922;7.966;2023-02-01T10:47:42;100525.16;;;5.66;86.62
70133;BME280;57495;49.922;7.966;2023-02-01T10:49:49;100517.09;;;5.68;85.92
70133;BME280;57495;49.922;7.966;2023-02-01T10:51:58;100526.03;;;5.67;85.61
70133;BME280;57495;49.922;7.966;2023-02-01T10:54:03;100527.09;;;5.77;85.81